createdAt,value
2019-05-22T00:00:22.574Z,14.80
2019-05-22T00:02:50.134Z,14.78
2019-05-22T00:05:22.443Z,14.76
2019-05-22T00:07:49.966Z,14.67
2019-05-22T00:10:19.387Z,14.69
2019-05-22T00:12:47.327Z,14.69
2019-05-22T00:15:14.457Z,14.59
2019-05-22T00:17:41.959Z,14.51
2019-05-22T00:20:09.498Z,14.52
2019-05-22T00:22:37.019Z,14.54
2019-05-22T00:25:04.520Z,14.59
2019-05-22T00:27:32.003Z,14.55
2019-05-22T00:29:59.566Z,14.56
2019-05-22T00:32:27.099Z,14.55
2019-05-22T00:34:54.573Z,14.53
2019-05-22T00:37:22.093Z,14.53
2019-05-22T00:39:49.729Z,14.54
2019-05-22T00:42:17.216Z,14.44
2019-05-22T00:44:44.732Z,14.35
2019-05-22T00:47:12.272Z,14.35
2019-05-22T00:49:39.782Z,14.24
2019-05-22T00:52:12.967Z,14.22
2019-05-22T00:54:42.014Z,14.17
2019-05-22T00:57:10.229Z,14.18
2019-05-22T00:59:39.597Z,14.20
2019-05-22T01:02:08.025Z,14.16
2019-05-22T01:04:35.919Z,14.15
2019-05-22T01:07:04.080Z,14.18
2019-05-22T01:09:37.576Z,14.19
2019-05-22T01:12:05.052Z,14.18
2019-05-22T01:14:42.310Z,14.10
2019-05-22T01:17:00.047Z,14.03
2019-05-22T01:19:27.496Z,13.93
2019-05-22T01:21:54.979Z,13.83
2019-05-22T01:24:22.479Z,13.78
2019-05-22T01:26:49.968Z,13.71
2019-05-22T01:29:17.418Z,13.62
2019-05-22T01:31:47.288Z,13.58
2019-05-22T01:34:24.255Z,13.54
2019-05-22T01:36:51.759Z,13.52
2019-05-22T01:39:21.730Z,13.57
2019-05-22T01:41:49.223Z,13.61
2019-05-22T01:44:16.677Z,13.63
2019-05-22T01:46:44.223Z,13.64
2019-05-22T01:49:11.690Z,13.62
2019-05-22T01:51:39.199Z,13.59
2019-05-22T01:54:06.696Z,13.59
2019-05-22T01:56:34.236Z,13.62
2019-05-22T01:59:01.703Z,13.60
2019-05-22T02:01:29.687Z,13.55
2019-05-22T02:03:57.360Z,13.41
2019-05-22T02:06:24.836Z,13.30
2019-05-22T02:08:53.868Z,13.19
2019-05-22T02:11:21.438Z,13.18
2019-05-22T02:13:50.847Z,13.21
2019-05-22T02:16:18.331Z,13.28
2019-05-22T02:18:45.797Z,13.27
2019-05-22T02:21:13.280Z,13.28
2019-05-22T02:23:40.773Z,13.31
2019-05-22T02:26:08.257Z,13.40
2019-05-22T02:28:35.846Z,13.44
2019-05-22T02:31:03.336Z,13.43
2019-05-22T02:33:30.794Z,13.41
2019-05-22T02:35:58.342Z,13.39
2019-05-22T02:38:25.854Z,13.41
2019-05-22T02:40:53.397Z,13.43
2019-05-22T02:43:20.889Z,13.45
2019-05-22T02:45:48.403Z,13.45
2019-05-22T02:48:15.872Z,13.42
2019-05-22T02:50:43.484Z,13.39
2019-05-22T02:53:10.931Z,13.38
2019-05-22T02:55:38.516Z,13.40
2019-05-22T02:58:05.995Z,13.44
2019-05-22T03:00:36.305Z,13.45
2019-05-22T03:03:03.801Z,13.42
2019-05-22T03:05:31.289Z,13.38
2019-05-22T03:07:58.778Z,13.26
2019-05-22T03:10:26.271Z,13.13
2019-05-22T03:12:53.727Z,13.06
2019-05-22T03:15:21.310Z,13.00
2019-05-22T03:17:48.779Z,12.97
2019-05-22T03:20:16.370Z,12.96
2019-05-22T03:22:47.496Z,12.95
2019-05-22T03:25:15.052Z,12.91
2019-05-22T03:27:48.471Z,12.93
2019-05-22T03:30:22.622Z,12.93
2019-05-22T03:32:50.122Z,13.00
2019-05-22T03:35:17.651Z,13.10
2019-05-22T03:37:45.170Z,13.20
2019-05-22T03:40:12.661Z,13.27
2019-05-22T03:42:40.148Z,13.28
2019-05-22T03:45:07.608Z,13.21
2019-05-22T03:47:35.064Z,13.18
2019-05-22T03:50:02.574Z,13.12
2019-05-22T03:52:30.039Z,13.02
2019-05-22T03:54:57.592Z,12.99
2019-05-22T03:57:25.050Z,13.07
2019-05-22T03:59:52.635Z,13.14
2019-05-22T04:02:20.098Z,13.20
2019-05-22T04:04:47.574Z,13.19
2019-05-22T04:07:15.988Z,13.18
2019-05-22T04:09:43.471Z,13.17
2019-05-22T04:12:10.981Z,13.16
2019-05-22T04:14:38.512Z,13.13
2019-05-22T04:17:06.788Z,13.14
2019-05-22T04:19:48.577Z,13.12
2019-05-22T04:22:02.612Z,13.06
2019-05-22T04:24:30.130Z,13.08
2019-05-22T04:26:57.577Z,13.07
2019-05-22T04:29:25.073Z,13.12
2019-05-22T04:34:22.008Z,13.22
2019-05-22T04:36:49.488Z,13.15
2019-05-22T04:39:19.855Z,13.20
2019-05-22T04:41:47.319Z,13.18
2019-05-22T04:44:14.789Z,13.22
2019-05-22T04:46:42.242Z,13.28
2019-05-22T04:49:09.783Z,13.27
2019-05-22T04:51:37.371Z,13.32
2019-05-22T04:54:04.976Z,13.36
2019-05-22T04:56:32.478Z,13.46
2019-05-22T04:59:00.076Z,13.59
2019-05-22T05:01:27.599Z,13.69
2019-05-22T05:03:56.013Z,13.80
2019-05-22T05:06:23.459Z,13.88
2019-05-22T05:08:51.041Z,14.00
2019-05-22T05:11:18.599Z,14.14
2019-05-22T05:13:46.093Z,14.20
2019-05-22T05:16:13.572Z,14.28
2019-05-22T05:18:41.047Z,14.45
2019-05-22T05:21:08.543Z,14.64
2019-05-22T05:23:36.045Z,14.71
2019-05-22T05:26:03.531Z,14.80
2019-05-22T05:28:31.043Z,14.84
2019-05-22T05:30:58.630Z,14.93
2019-05-22T05:33:25.785Z,15.09
2019-05-22T05:35:52.827Z,15.17
2019-05-22T05:38:19.979Z,15.09
2019-05-22T05:40:47.095Z,15.03
2019-05-22T05:43:14.207Z,15.19
2019-05-22T05:45:41.457Z,15.27
2019-05-22T05:48:09.290Z,15.37
2019-05-22T05:50:40.210Z,15.46
2019-05-22T05:53:03.739Z,15.58
2019-05-22T05:55:37.675Z,15.62
2019-05-22T05:58:19.651Z,15.33
2019-05-22T06:00:49.787Z,15.10
2019-05-22T06:03:34.843Z,15.13
2019-05-22T06:06:02.577Z,15.13
2019-05-22T06:08:30.085Z,15.28
2019-05-22T06:10:57.127Z,15.46
2019-05-22T06:13:24.207Z,15.64
2019-05-22T06:15:53.963Z,15.52
2019-05-22T06:18:25.865Z,15.36
2019-05-22T06:21:03.291Z,15.35
2019-05-22T06:26:36.599Z,15.32
2019-05-22T06:29:04.179Z,15.19
2019-05-22T06:31:33.125Z,15.47
2019-05-22T06:34:00.164Z,15.68
2019-05-22T06:36:27.804Z,15.84
2019-05-22T06:38:54.915Z,15.68
2019-05-22T06:41:21.962Z,15.57
2019-05-22T06:43:54.872Z,15.61
2019-05-22T06:46:27.934Z,15.87
2019-05-22T06:48:54.963Z,16.13
2019-05-22T06:51:22.473Z,16.05
2019-05-22T06:53:49.519Z,16.19
2019-05-22T06:56:16.551Z,16.17
2019-05-22T06:58:43.600Z,16.58
2019-05-22T07:01:10.700Z,16.78
2019-05-22T07:03:37.727Z,17.23
2019-05-22T07:06:04.808Z,17.44
2019-05-22T07:08:31.826Z,17.57
2019-05-22T07:10:58.968Z,17.90
2019-05-22T07:13:26.040Z,18.06
2019-05-22T07:15:53.176Z,17.92
2019-05-22T07:18:20.315Z,18.09
2019-05-22T07:20:47.363Z,18.69
2019-05-22T07:23:15.301Z,18.96
2019-05-22T07:25:42.375Z,19.15
2019-05-22T07:28:09.394Z,19.03
2019-05-22T07:30:36.471Z,19.19
2019-05-22T07:33:03.693Z,19.04
2019-05-22T07:35:49.793Z,19.26
2019-05-22T07:37:57.874Z,19.63
2019-05-22T07:40:25.168Z,19.60
2019-05-22T07:42:52.185Z,19.74
2019-05-22T07:45:19.316Z,19.76
2019-05-22T07:47:46.361Z,20.25
2019-05-22T07:50:13.905Z,20.32
2019-05-22T07:52:41.395Z,20.68
2019-05-22T07:55:08.950Z,20.89
2019-05-22T07:57:36.551Z,20.78
2019-05-22T08:00:04.055Z,20.71
2019-05-22T08:02:34.410Z,20.50
2019-05-22T08:05:02.109Z,20.38
2019-05-22T08:07:29.761Z,20.45
2019-05-22T08:09:57.589Z,20.51
2019-05-22T08:12:25.166Z,20.60
2019-05-22T08:14:52.721Z,20.42
2019-05-22T08:17:19.737Z,20.34
2019-05-22T08:19:47.252Z,20.18
2019-05-22T08:22:14.343Z,20.13
2019-05-22T08:24:41.456Z,20.15
2019-05-22T08:27:08.502Z,20.05
2019-05-22T08:29:35.539Z,20.63
2019-05-22T08:32:02.541Z,21.01
2019-05-22T08:34:30.032Z,21.05
2019-05-22T08:36:57.555Z,21.17
2019-05-22T08:39:25.243Z,21.29
2019-05-22T08:41:52.401Z,21.50
2019-05-22T08:44:19.915Z,21.81
2019-05-22T08:46:46.962Z,22.12
2019-05-22T08:49:14.049Z,22.21
2019-05-22T08:51:41.578Z,22.02
2019-05-22T08:54:08.878Z,21.52
2019-05-22T08:56:36.271Z,21.47
2019-05-22T08:59:18.475Z,21.25
2019-05-22T09:01:30.680Z,21.01
2019-05-22T09:03:58.414Z,20.95
2019-05-22T09:06:26.104Z,21.15
2019-05-22T09:08:53.607Z,21.44
2019-05-22T09:11:21.101Z,21.47
2019-05-22T09:16:21.162Z,21.62
2019-05-22T09:18:48.949Z,21.95
2019-05-22T09:21:16.570Z,21.95
2019-05-22T09:23:44.709Z,21.80
2019-05-22T09:26:12.957Z,21.81
2019-05-22T09:28:40.577Z,21.92
2019-05-22T09:31:08.995Z,21.93
2019-05-22T09:33:36.447Z,22.07
2019-05-22T09:36:04.035Z,22.26
2019-05-22T09:38:31.698Z,22.06
2019-05-22T09:40:59.600Z,21.92
2019-05-22T09:43:27.112Z,22.00
2019-05-22T09:45:54.641Z,22.42
2019-05-22T09:48:22.186Z,22.47
2019-05-22T09:50:49.739Z,22.54
2019-05-22T09:53:17.674Z,22.67
2019-05-22T09:55:47.300Z,22.74
2019-05-22T09:58:12.227Z,22.96
2019-05-22T10:00:39.695Z,22.93
2019-05-22T10:03:07.208Z,23.12
2019-05-22T10:05:34.757Z,23.22
2019-05-22T10:08:02.244Z,23.50
2019-05-22T10:10:29.858Z,23.33
2019-05-22T10:12:57.447Z,23.46
2019-05-22T10:15:24.550Z,23.81
2019-05-22T10:17:52.048Z,23.89
2019-05-22T10:20:19.600Z,23.57
2019-05-22T10:22:46.764Z,23.56
2019-05-22T10:25:16.696Z,23.49
2019-05-22T10:27:41.878Z,23.54
2019-05-22T10:30:11.607Z,23.58
2019-05-22T10:32:38.674Z,23.78
2019-05-22T10:35:05.711Z,23.81
2019-05-22T10:37:32.728Z,23.95
2019-05-22T10:40:01.226Z,23.98
2019-05-22T10:42:28.417Z,24.17
2019-05-22T10:44:55.900Z,24.17
2019-05-22T10:47:22.978Z,24.22
2019-05-22T10:49:49.983Z,24.20
2019-05-22T10:52:17.014Z,24.18
2019-05-22T10:54:44.175Z,24.32
2019-05-22T10:57:11.745Z,24.52
2019-05-22T10:59:39.268Z,24.57
2019-05-22T11:02:06.748Z,24.35
2019-05-22T11:04:34.270Z,24.55
2019-05-22T11:07:01.835Z,24.40
2019-05-22T11:09:29.323Z,23.98
2019-05-22T11:11:56.903Z,23.93
2019-05-22T11:14:24.398Z,24.08
2019-05-22T11:16:51.957Z,24.32
2019-05-22T11:19:19.578Z,24.22
2019-05-22T11:21:47.115Z,24.28
2019-05-22T11:24:14.657Z,24.18
2019-05-22T11:26:42.131Z,24.51
2019-05-22T11:29:10.043Z,24.79
2019-05-22T11:31:37.541Z,24.97
2019-05-22T11:34:05.079Z,24.74
2019-05-22T11:36:32.544Z,24.37
2019-05-22T11:39:00.097Z,24.20
2019-05-22T11:41:27.657Z,24.40
2019-05-22T11:43:55.265Z,24.32
2019-05-22T11:46:22.776Z,24.28
2019-05-22T11:48:50.274Z,24.25
2019-05-22T11:51:17.768Z,24.26
2019-05-22T11:53:45.260Z,24.56
2019-05-22T11:56:13.027Z,24.90
2019-05-22T11:58:40.585Z,24.79
2019-05-22T12:01:08.404Z,24.80
2019-05-22T12:03:36.129Z,24.51
2019-05-22T12:06:03.640Z,24.79
2019-05-22T12:08:31.124Z,25.08
2019-05-22T12:10:58.607Z,25.17
2019-05-22T12:13:26.188Z,24.86
2019-05-22T12:15:53.620Z,24.68
2019-05-22T12:18:21.169Z,24.93
2019-05-22T12:20:48.837Z,25.18
2019-05-22T12:23:16.274Z,25.28
2019-05-22T12:25:43.712Z,25.20
2019-05-22T12:28:11.202Z,24.94
2019-05-22T12:30:38.655Z,24.55
2019-05-22T12:33:13.307Z,24.81
2019-05-22T12:35:34.155Z,25.02
2019-05-22T12:38:01.852Z,25.49
2019-05-22T12:40:29.352Z,25.05
2019-05-22T12:42:56.971Z,25.15
2019-05-22T12:45:24.541Z,25.29
2019-05-22T12:47:52.049Z,25.31
2019-05-22T12:50:19.558Z,24.85
2019-05-22T12:52:47.299Z,24.79
2019-05-22T12:55:14.774Z,24.91
2019-05-22T12:57:42.255Z,25.13
2019-05-22T13:00:09.745Z,25.32
2019-05-22T13:02:42.139Z,25.31
2019-05-22T13:05:06.247Z,25.61
2019-05-22T13:07:33.753Z,25.07
2019-05-22T13:10:01.241Z,25.11
2019-05-22T13:12:28.808Z,25.26
2019-05-22T13:15:09.165Z,24.81
2019-05-22T13:17:23.792Z,24.64
2019-05-22T13:19:51.307Z,25.00
2019-05-22T13:22:18.817Z,25.43
2019-05-22T13:24:46.280Z,25.51
2019-05-22T13:27:13.780Z,24.87
2019-05-22T13:29:41.238Z,24.90
2019-05-22T13:32:08.803Z,25.21
2019-05-22T13:34:36.382Z,25.33
2019-05-22T13:37:04.352Z,25.34
2019-05-22T13:39:32.080Z,25.03
2019-05-22T13:41:59.896Z,25.09
2019-05-22T13:44:27.408Z,25.23
2019-05-22T13:46:55.035Z,25.38
2019-05-22T13:49:22.591Z,25.19
2019-05-22T13:51:50.320Z,25.21
2019-05-22T13:54:18.019Z,25.07
2019-05-22T13:56:45.619Z,24.96
2019-05-22T13:59:13.335Z,24.91
2019-05-22T14:01:40.989Z,25.09
2019-05-22T14:04:08.488Z,25.47
2019-05-22T14:06:36.110Z,25.33
2019-05-22T14:09:03.987Z,24.97
2019-05-22T14:11:31.169Z,24.44
2019-05-22T14:13:58.685Z,24.30
2019-05-22T14:16:26.451Z,24.64
2019-05-22T14:18:54.063Z,24.69
2019-05-22T14:21:21.602Z,24.94
2019-05-22T14:23:49.454Z,25.11
2019-05-22T14:26:17.950Z,25.32
2019-05-22T14:28:45.596Z,25.43
2019-05-22T14:31:13.191Z,25.27
2019-05-22T14:33:41.012Z,25.11
2019-05-22T14:36:08.557Z,25.22
2019-05-22T14:38:36.097Z,24.99
2019-05-22T14:41:03.634Z,24.91
2019-05-22T14:43:31.110Z,24.73
2019-05-22T14:45:58.795Z,25.05
2019-05-22T14:48:26.484Z,25.13
2019-05-22T14:50:54.084Z,25.20
2019-05-22T14:53:22.116Z,25.07
2019-05-22T14:55:49.582Z,24.91
2019-05-22T14:58:17.077Z,24.62
2019-05-22T15:00:45.210Z,24.66
2019-05-22T15:03:12.701Z,24.81
2019-05-22T15:05:40.258Z,24.77
2019-05-22T15:08:07.739Z,24.65
2019-05-22T15:10:35.751Z,24.75
2019-05-22T15:13:03.219Z,24.65
2019-05-22T15:15:30.760Z,24.25
2019-05-22T15:17:58.273Z,24.20
2019-05-22T15:20:26.650Z,24.30
2019-05-22T15:22:56.309Z,24.53
2019-05-22T15:25:21.695Z,24.63
2019-05-22T15:27:49.180Z,24.71
2019-05-22T15:30:16.752Z,24.69
2019-05-22T15:32:44.436Z,24.55
2019-05-22T15:35:11.968Z,24.58
2019-05-22T15:40:12.299Z,24.57
2019-05-22T15:42:40.713Z,24.28
2019-05-22T15:45:08.303Z,24.29
2019-05-22T15:47:52.276Z,24.27
2019-05-22T15:50:03.641Z,24.48
2019-05-22T15:52:31.159Z,24.62
2019-05-22T15:54:58.605Z,24.61
2019-05-22T15:57:26.973Z,24.37
2019-05-22T15:59:54.475Z,24.32
2019-05-22T16:02:22.199Z,24.34
2019-05-22T16:04:49.555Z,24.07
2019-05-22T16:07:17.658Z,23.98
2019-05-22T16:09:45.622Z,24.00
2019-05-22T16:12:12.709Z,23.63
2019-05-22T16:14:40.167Z,23.64
2019-05-22T16:19:41.197Z,23.90
2019-05-22T16:22:08.675Z,23.96
2019-05-22T16:24:36.179Z,23.94
2019-05-22T16:27:03.716Z,23.81
2019-05-22T16:29:30.824Z,24.05
2019-05-22T16:31:57.871Z,24.07
2019-05-22T16:34:28.444Z,24.21
2019-05-22T16:36:53.328Z,24.14
2019-05-22T16:39:20.822Z,23.99
2019-05-22T16:41:48.326Z,23.76
2019-05-22T16:44:15.974Z,23.85
2019-05-22T16:46:43.465Z,23.89
2019-05-22T16:49:10.959Z,23.79
2019-05-22T16:51:38.497Z,23.94
2019-05-22T16:54:06.698Z,24.04
2019-05-22T16:56:33.777Z,24.03
2019-05-22T16:59:00.758Z,23.98
2019-05-22T17:01:29.031Z,24.04
2019-05-22T17:03:56.582Z,24.07
2019-05-22T17:06:24.112Z,24.01
2019-05-22T17:08:51.624Z,24.02
2019-05-22T17:11:19.608Z,24.04
2019-05-22T17:13:47.109Z,23.98
2019-05-22T17:16:14.130Z,23.93
2019-05-22T17:18:47.766Z,23.66
2019-05-22T17:21:08.398Z,23.57
2019-05-22T17:23:35.421Z,23.65
2019-05-22T17:26:02.417Z,23.73
2019-05-22T17:28:29.506Z,23.67
2019-05-22T17:30:56.526Z,23.59
2019-05-22T17:33:23.631Z,23.61
2019-05-22T17:35:50.735Z,23.51
2019-05-22T17:38:17.743Z,23.49
2019-05-22T17:40:44.816Z,23.49
2019-05-22T17:43:11.904Z,23.32
2019-05-22T17:45:38.962Z,23.21
2019-05-22T17:48:06.523Z,23.16
2019-05-22T17:50:33.997Z,23.23
2019-05-22T17:53:01.558Z,23.14
2019-05-22T17:55:29.048Z,23.11
2019-05-22T17:57:56.700Z,23.10
2019-05-22T18:00:27.267Z,23.00
2019-05-22T18:02:54.765Z,23.05
2019-05-22T18:05:22.407Z,22.92
2019-05-22T18:07:49.888Z,22.86
2019-05-22T18:10:17.023Z,22.83
2019-05-22T18:12:44.529Z,22.66
2019-05-22T18:15:11.983Z,22.55
2019-05-22T18:17:39.732Z,22.36
2019-05-22T18:20:07.291Z,22.26
2019-05-22T18:22:34.777Z,22.16
2019-05-22T18:25:02.309Z,22.03
2019-05-22T18:27:30.071Z,21.88
2019-05-22T18:29:57.552Z,21.70
2019-05-22T18:32:27.281Z,21.54
2019-05-22T18:34:54.752Z,21.33
2019-05-22T18:37:22.291Z,21.13
2019-05-22T18:39:49.774Z,20.87
2019-05-22T18:42:17.235Z,20.74
2019-05-22T18:44:44.796Z,20.72
2019-05-22T18:47:12.278Z,20.60
2019-05-22T18:49:39.821Z,20.51
2019-05-22T18:52:07.306Z,20.39
2019-05-22T18:54:36.206Z,20.21
2019-05-22T18:57:03.817Z,20.03
2019-05-22T18:59:31.278Z,19.81
2019-05-22T19:01:58.816Z,19.74
2019-05-22T19:04:26.437Z,19.70
2019-05-22T19:06:56.007Z,19.64
2019-05-22T19:09:22.813Z,19.61
2019-05-22T19:11:50.542Z,19.64
2019-05-22T19:14:18.052Z,19.67
2019-05-22T19:16:45.750Z,19.53
2019-05-22T19:19:13.207Z,19.44
2019-05-22T19:21:40.801Z,19.37
2019-05-22T19:24:08.301Z,19.25
2019-05-22T19:26:35.809Z,19.26
2019-05-22T19:29:03.378Z,19.20
2019-05-22T19:31:30.935Z,19.18
2019-05-22T19:33:58.397Z,19.29
2019-05-22T19:36:25.903Z,19.31
2019-05-22T19:38:53.384Z,19.29
2019-05-22T19:41:20.891Z,19.25
2019-05-22T19:43:48.562Z,19.18
2019-05-22T19:46:16.199Z,19.08
2019-05-22T19:48:43.694Z,18.96
2019-05-22T19:51:11.182Z,18.94
2019-05-22T19:53:38.703Z,18.87
2019-05-22T19:56:06.193Z,18.82
2019-05-22T19:58:33.711Z,18.81
2019-05-22T20:01:01.217Z,18.76
2019-05-22T20:03:28.703Z,18.72
2019-05-22T20:05:56.241Z,18.70
2019-05-22T20:08:23.808Z,18.70
2019-05-22T20:10:51.322Z,18.70
2019-05-22T20:13:18.823Z,18.64
2019-05-22T20:15:46.304Z,18.59
2019-05-22T20:18:13.794Z,18.55
2019-05-22T20:20:41.311Z,18.54
2019-05-22T20:23:08.878Z,18.53
2019-05-22T20:25:36.406Z,18.48
2019-05-22T20:28:04.014Z,18.48
2019-05-22T20:30:31.731Z,18.46
2019-05-22T20:32:59.205Z,18.43
2019-05-22T20:35:26.689Z,18.41
2019-05-22T20:37:54.243Z,18.36
2019-05-22T20:40:21.716Z,18.35
2019-05-22T20:42:49.180Z,18.36
2019-05-22T20:45:16.672Z,18.32
2019-05-22T20:47:44.148Z,18.29
2019-05-22T20:50:11.614Z,18.23
2019-05-22T20:52:39.408Z,18.19
2019-05-22T20:55:06.973Z,18.16
2019-05-22T20:57:34.429Z,18.16
2019-05-22T21:00:01.996Z,18.14
2019-05-22T21:02:29.452Z,18.14
2019-05-22T21:04:56.969Z,18.14
2019-05-22T21:07:24.465Z,18.08
2019-05-22T21:09:52.115Z,18.03
2019-05-22T21:12:19.772Z,17.96
2019-05-22T21:14:47.247Z,17.98
2019-05-22T21:17:14.702Z,17.94
2019-05-22T21:19:42.215Z,17.85
2019-05-22T21:22:09.930Z,17.72
2019-05-22T21:24:37.425Z,17.59
2019-05-22T21:27:05.068Z,17.45
2019-05-22T21:29:32.579Z,17.41
2019-05-22T21:32:00.059Z,17.36
2019-05-22T21:34:27.526Z,17.28
2019-05-22T21:36:55.204Z,17.19
2019-05-22T21:39:22.758Z,17.18
2019-05-22T21:41:50.383Z,17.15
2019-05-22T21:44:17.878Z,17.11
2019-05-22T21:46:45.373Z,17.06
2019-05-22T21:49:13.034Z,17.09
2019-05-22T21:51:40.514Z,17.12
2019-05-22T21:54:07.990Z,17.05
2019-05-22T21:56:35.504Z,16.97
2019-05-22T21:59:03.434Z,16.89
2019-05-22T22:01:31.025Z,16.85
2019-05-22T22:03:59.071Z,16.80
2019-05-22T22:06:26.568Z,16.74
2019-05-22T22:08:54.064Z,16.72
2019-05-22T22:11:22.240Z,16.66
2019-05-22T22:13:49.755Z,16.59
2019-05-22T22:16:17.236Z,16.51
2019-05-22T22:18:44.949Z,16.45
2019-05-22T22:21:12.430Z,16.46
2019-05-22T22:23:39.948Z,16.46
2019-05-22T22:26:24.244Z,16.46
2019-05-22T22:28:35.319Z,16.47
2019-05-22T22:31:02.846Z,16.41
2019-05-22T22:33:30.322Z,16.38
2019-05-22T22:35:57.801Z,16.37
2019-05-22T22:38:26.201Z,16.36
2019-05-22T22:40:53.802Z,16.27
2019-05-22T22:43:21.311Z,16.17
2019-05-22T22:48:41.380Z,16.37
2019-05-22T22:51:08.844Z,16.31
2019-05-22T22:53:36.315Z,16.24
2019-05-22T22:56:03.821Z,16.26
2019-05-22T22:58:31.345Z,16.31
2019-05-22T23:00:59.437Z,16.35
2019-05-22T23:03:27.113Z,16.32
2019-05-22T23:05:54.613Z,16.31
2019-05-22T23:08:22.114Z,16.30
2019-05-22T23:10:49.589Z,16.30
2019-05-22T23:13:17.060Z,16.30
2019-05-22T23:15:44.518Z,16.26
2019-05-22T23:18:12.019Z,16.07
2019-05-22T23:20:38.976Z,15.94
2019-05-22T23:23:06.186Z,15.93
2019-05-22T23:25:33.667Z,15.79
2019-05-22T23:28:01.160Z,15.77
2019-05-22T23:30:28.622Z,15.66
2019-05-22T23:32:56.105Z,15.53
2019-05-22T23:35:23.562Z,15.50
2019-05-22T23:37:51.326Z,15.47
2019-05-22T23:40:18.851Z,15.42
2019-05-22T23:42:46.304Z,15.44
2019-05-22T23:45:13.752Z,15.41
2019-05-22T23:47:53.139Z,15.39
2019-05-22T23:50:20.961Z,15.33
2019-05-22T23:52:48.485Z,15.21
2019-05-22T23:55:15.938Z,15.21
2019-05-22T23:57:43.481Z,15.20
